Bulk Guatemala — 3EXC4 — position and weather

sailwx.info

Track history (hours):
 
Tides and Currents Weather Stations Pressure Air Temp Water Temp Dewpoint Dewpoint Depression Visibility Wind Speed Wind Dir Waves Ship Positions

Bulk Guatemala

Last reported at 2018-Jan-07 21:30 UTC. Time now 2018-Jan-19 15:56 UTC.
Position N 01°16' E 103°24'.
Warning: this ship's position is 11 days out of date.

Length 199 m; draft 11 m.

Type: Cargo ship. MMSI: 356777000.

Date/timePositionNaut miles runAvg speedWind from/ knotsBaromVisibWave heightAir tempDewpointWater temp
2018-Jan-07 21:30N 01°16' E 103°24'712.8
2018-Jan-07 20:58N 01°13' E 103°30'613.0
2018-Jan-07 20:30N 01°12' E 103°36'713.3
2018-Jan-07 20:01N 01°10' E 103°42'612.3
2018-Jan-07 19:30N 01°10' E 103°48'713.0
2018-Jan-07 18:59N 01°13' E 103°54'4 7.7
2018-Jan-07 18:30N 01°15' E 103°57'2 3.7
2018-Jan-07 17:59N 01°17' E 103°57'0 0.0
2018-Jan-07 16:57N 01°17' E 103°57'0 0.0
2018-Jan-07 16:30N 01°17' E 103°57'0 0.1
2018-Jan-07 15:27N 01°17' E 103°57'0 0.1
2018-Jan-07 14:57N 01°17' E 103°57'0 0.1
2018-Jan-07 14:03N 01°17' E 103°57'0 0.0
2018-Jan-07 13:21N 01°17' E 103°57'0 0.0
2018-Jan-07 10:42N 01°17' E 103°57'0 0.0
2018-Jan-07 10:27N 01°17' E 103°57'0 0.0
2018-Jan-07 09:52N 01°17' E 103°57'0 0.0
2018-Jan-07 09:30N 01°17' E 103°57'0 0.2
2018-Jan-07 08:58N 01°17' E 103°57'2 4.9
2018-Jan-07 08:29N 01°15' E 103°58'2 3.3
2018-Jan-07 07:54N 01°16' E 104°00'2 5.0
2018-Jan-07 07:28N 01°16' E 104°02'  
2018-Jan-02 08:29N 22°45' E 119°38'814.2
2018-Jan-02 07:55N 22°52' E 119°43'614.0
2018-Jan-02 07:30N 22°56' E 119°47'813.5
2018-Jan-02 06:53N 23°04' E 119°51'614.3
2018-Jan-02 06:30N 23°09' E 119°52'1114.9
2018-Jan-02 05:44N 23°20' E 119°55'414.9
2018-Jan-02 05:30N 23°24' E 119°55'1414.2
2018-Jan-02 04:30N 23°38' E 119°55'8612.9
2018-Jan-01 21:51N 24°57' E 120°31'  
Track history (hours):
 
Tides and Currents Weather Stations Pressure Air Temp Water Temp Dewpoint Dewpoint Depression Visibility Wind Speed Wind Dir Waves Ship Positions

Bulk Guatemala

Last reported at 2018-Jan-07 21:30 UTC. Time now 2018-Jan-19 15:56 UTC.
Position N 01°16' E 103°24'.
Warning: this ship's position is 11 days out of date.

Length 199 m; draft 11 m.

Type: Cargo ship. MMSI: 356777000.

Date/timePositionNaut miles runAvg speedWind from/ knotsBaromVisibWave heightAir tempDewpointWater temp
2018-Jan-07 21:30N 01°16' E 103°24'712.8
2018-Jan-07 20:58N 01°13' E 103°30'613.0
2018-Jan-07 20:30N 01°12' E 103°36'713.3
2018-Jan-07 20:01N 01°10' E 103°42'612.3
2018-Jan-07 19:30N 01°10' E 103°48'713.0
2018-Jan-07 18:59N 01°13' E 103°54'4 7.7
2018-Jan-07 18:30N 01°15' E 103°57'2 3.7
2018-Jan-07 17:59N 01°17' E 103°57'0 0.0
2018-Jan-07 16:57N 01°17' E 103°57'0 0.0
2018-Jan-07 16:30N 01°17' E 103°57'0 0.1
2018-Jan-07 15:27N 01°17' E 103°57'0 0.1
2018-Jan-07 14:57N 01°17' E 103°57'0 0.1
2018-Jan-07 14:03N 01°17' E 103°57'0 0.0
2018-Jan-07 13:21N 01°17' E 103°57'0 0.0
2018-Jan-07 10:42N 01°17' E 103°57'0 0.0
2018-Jan-07 10:27N 01°17' E 103°57'0 0.0
2018-Jan-07 09:52N 01°17' E 103°57'0 0.0
2018-Jan-07 09:30N 01°17' E 103°57'0 0.2
2018-Jan-07 08:58N 01°17' E 103°57'2 4.9
2018-Jan-07 08:29N 01°15' E 103°58'2 3.3
2018-Jan-07 07:54N 01°16' E 104°00'2 5.0
2018-Jan-07 07:28N 01°16' E 104°02'  
2018-Jan-02 08:29N 22°45' E 119°38'814.2
2018-Jan-02 07:55N 22°52' E 119°43'614.0
2018-Jan-02 07:30N 22°56' E 119°47'813.5
2018-Jan-02 06:53N 23°04' E 119°51'614.3
2018-Jan-02 06:30N 23°09' E 119°52'1114.9
2018-Jan-02 05:44N 23°20' E 119°55'414.9
2018-Jan-02 05:30N 23°24' E 119°55'1414.2
2018-Jan-02 04:30N 23°38' E 119°55'8612.9
2018-Jan-01 21:51N 24°57' E 120°31'  

Dump ship's entire track history